Главная страница
METAR-TAF:

METAR-TAF

Аэропорты :

Clearfield-Lawrence Airport

Clearfield, Пенсильвания, США

широта: 41-02-48N, долгота: 078-24-42W, высота над уровнем моря: 462 м

Текущие метеонаблюдения

Эта сводка был подготовлена 57 минут назад, в 01:54 UTC
Ветер 4 Узел от западный
Температура -8°C
Влажность 67%
Давление 1023 hPa
Видимость: 16.1 км
ясное небо

METAR: KFIG 130154Z AUTO 28004KT 10SM CLR M08/M13 A3020 RMK AO2 SLP252 T10781128 $

Время: 21:51 (02:51 UTC)


TAF: отсутствует

Метеонаблюдения и прогнозы для более 4000 аэропортов (сводки METAR и TAF).

Имеющиеся станции представлены на карте желтыми и красными точками.

Чтобы увидеть название станции, наведите на нее мышь.

Затем щелкните, чтобы увидеть метеонаблюдения и метеопрогнозы.

Управление картой: чтобы увеличить масштаб, щелкните зеленые кнопки с черным крестиком; чтобы уменьшить масштаб, щелкните зеленую кнопку с тире; для просмотра соседних карт щелкайте зеленые стрелки.


METAR-TAF: